createdAt,value
2023-03-14T00:00:40.939Z,92910.91
2023-03-14T00:03:07.406Z,92906.03
2023-03-14T00:05:35.249Z,92900.09
2023-03-14T00:08:01.734Z,92910.03
2023-03-14T00:10:28.126Z,92912.63
2023-03-14T00:12:54.583Z,92913.50
2023-03-14T00:15:21.041Z,92916.59
2023-03-14T00:17:47.441Z,92913.22
2023-03-14T00:20:13.884Z,92909.84
2023-03-14T00:22:41.571Z,92885.41
2023-03-14T00:25:09.787Z,92895.19
2023-03-14T00:27:36.288Z,92846.16
2023-03-14T00:30:05.614Z,92826.91
2023-03-14T00:32:32.078Z,92829.78
2023-03-14T00:34:58.570Z,92814.22
2023-03-14T00:37:27.666Z,92799.41
2023-03-14T00:39:54.098Z,92799.53
2023-03-14T00:42:20.515Z,92799.09
2023-03-14T00:44:46.934Z,92783.38
2023-03-14T00:47:13.455Z,92765.81
2023-03-14T00:49:39.859Z,92733.00
2023-03-14T00:52:06.257Z,92716.22
2023-03-14T00:54:32.887Z,92673.34
2023-03-14T00:56:59.576Z,92663.44
2023-03-14T00:59:25.943Z,92659.97
2023-03-14T01:01:52.433Z,92638.50
2023-03-14T01:04:19.315Z,92649.50
2023-03-14T01:06:45.765Z,92638.97
2023-03-14T01:09:12.286Z,92670.75
2023-03-14T01:11:38.739Z,92668.47
2023-03-14T01:14:05.689Z,92678.41
2023-03-14T01:16:34.516Z,92697.34
2023-03-14T01:19:02.299Z,92709.84
2023-03-14T01:21:31.815Z,92716.13
2023-03-14T01:24:00.180Z,92702.84
2023-03-14T01:26:28.204Z,92709.06
2023-03-14T01:28:56.008Z,92715.34
2023-03-14T01:31:24.311Z,92712.00
2023-03-14T01:33:51.154Z,92707.56
2023-03-14T01:36:17.754Z,92691.69
2023-03-14T01:38:45.009Z,92685.44
2023-03-14T01:41:21.205Z,92677.94
2023-03-14T01:43:49.000Z,92675.81
2023-03-14T01:46:30.164Z,92684.66
2023-03-14T01:49:03.042Z,92672.00
2023-03-14T01:51:39.527Z,92672.75
2023-03-14T01:54:15.728Z,92671.25
2023-03-14T01:56:47.214Z,92663.03
2023-03-14T01:59:14.060Z,92651.88
2023-03-14T02:01:43.996Z,92648.19
2023-03-14T02:04:11.156Z,92648.97
2023-03-14T02:06:52.629Z,92657.19
2023-03-14T02:09:22.344Z,92645.31
2023-03-14T02:11:50.243Z,92640.41
2023-03-14T02:14:48.644Z,92630.34
2023-03-14T02:17:36.525Z,92632.19
2023-03-14T02:20:22.667Z,92633.25
2023-03-14T02:22:54.975Z,92638.31
2023-03-14T02:25:36.740Z,92643.19
2023-03-14T02:28:03.553Z,92651.28
2023-03-14T02:30:31.922Z,92640.59
2023-03-14T02:33:16.799Z,92629.44
2023-03-14T02:35:54.588Z,92641.34
2023-03-14T02:38:38.787Z,92637.69
2023-03-14T02:41:06.465Z,92642.25
2023-03-14T02:43:38.231Z,92634.16
2023-03-14T02:46:13.022Z,92625.59
2023-03-14T02:48:49.400Z,92615.22
2023-03-14T02:51:17.562Z,92608.97
2023-03-14T02:53:47.136Z,92605.63
2023-03-14T02:56:15.136Z,92619.03
2023-03-14T02:58:41.608Z,92621.31
2023-03-14T03:01:19.781Z,92617.97
2023-03-14T03:03:46.545Z,92614.16
2023-03-14T03:06:13.032Z,92612.34
2023-03-14T03:08:39.536Z,92609.13
2023-03-14T03:11:06.550Z,92603.47
2023-03-14T03:13:34.659Z,92596.44
2023-03-14T03:16:03.667Z,92607.59
2023-03-14T03:18:30.124Z,92599.38
2023-03-14T03:21:00.163Z,92591.59
2023-03-14T03:23:26.658Z,92590.81
2023-03-14T03:25:53.228Z,92567.66
2023-03-14T03:28:21.055Z,92566.69
2023-03-14T03:30:47.976Z,92559.97
2023-03-14T03:33:14.973Z,92559.25
2023-03-14T03:35:50.622Z,92559.97
2023-03-14T03:38:23.234Z,92553.28
2023-03-14T03:40:53.212Z,92547.63
2023-03-14T03:43:20.365Z,92540.63
2023-03-14T03:45:49.092Z,92542.78
2023-03-14T03:48:15.715Z,92526.88
2023-03-14T03:50:48.529Z,92529.94
2023-03-14T03:53:32.385Z,92535.13
2023-03-14T03:56:00.590Z,92532.63
2023-03-14T03:58:27.227Z,92527.34
2023-03-14T04:00:53.652Z,92527.34
2023-03-14T04:03:20.110Z,92540.63
2023-03-14T04:05:46.836Z,92530.56
2023-03-14T04:08:13.811Z,92532.06
2023-03-14T04:10:40.304Z,92533.94
2023-03-14T04:13:10.085Z,92535.56
2023-03-14T04:15:38.723Z,92534.03
2023-03-14T04:18:12.243Z,92529.16
2023-03-14T04:20:38.648Z,92528.41
2023-03-14T04:23:05.416Z,92536.19
2023-03-14T04:25:31.919Z,92535.00
2023-03-14T04:28:00.833Z,92531.06
2023-03-14T04:30:29.777Z,92541.56
2023-03-14T04:32:59.361Z,92536.72
2023-03-14T04:35:27.880Z,92522.97
2023-03-14T04:37:58.745Z,92518.84
2023-03-14T04:40:25.730Z,92510.50
2023-03-14T04:42:55.756Z,92513.09
2023-03-14T04:45:22.886Z,92514.91
2023-03-14T04:47:49.589Z,92498.16
2023-03-14T04:50:18.992Z,92495.25
2023-03-14T04:52:46.405Z,92502.56
2023-03-14T04:55:13.038Z,92501.84
2023-03-14T04:57:39.641Z,92494.69
2023-03-14T05:00:11.064Z,92493.94
2023-03-14T05:02:52.481Z,92493.03
2023-03-14T05:05:26.797Z,92498.97
2023-03-14T05:08:28.746Z,92485.88
2023-03-14T05:11:12.699Z,92476.25
2023-03-14T05:13:53.335Z,92464.22
2023-03-14T05:16:44.996Z,92467.59
2023-03-14T05:19:31.121Z,92465.75
2023-03-14T05:22:17.908Z,92450.34
2023-03-14T05:25:13.376Z,92454.91
2023-03-14T05:28:02.792Z,92456.31
2023-03-14T05:30:39.024Z,92449.63
2023-03-14T05:33:24.280Z,92450.69
2023-03-14T05:36:12.316Z,92442.78
2023-03-14T05:38:54.045Z,92439.88
2023-03-14T05:41:31.133Z,92433.16
2023-03-14T05:44:23.702Z,92439.88
2023-03-14T05:47:14.501Z,92430.25
2023-03-14T05:50:01.394Z,92440.31
2023-03-14T05:52:36.029Z,92425.81
2023-03-14T05:55:19.421Z,92425.81
2023-03-14T05:57:58.971Z,92432.84
2023-03-14T06:00:44.020Z,92425.06
2023-03-14T06:03:34.176Z,92421.28
2023-03-14T06:06:00.874Z,92422.78
2023-03-14T06:08:27.792Z,92413.06
2023-03-14T06:10:54.692Z,92426.47
2023-03-14T06:13:28.802Z,92427.53
2023-03-14T06:15:55.291Z,92423.75
2023-03-14T06:18:21.729Z,92411.09
2023-03-14T06:20:48.863Z,92410.03
2023-03-14T06:23:23.732Z,92407.44
2023-03-14T06:25:50.458Z,92403.31
2023-03-14T06:28:17.696Z,92398.13
2023-03-14T06:30:44.362Z,92399.22
2023-03-14T06:33:12.696Z,92404.84
2023-03-14T06:35:41.346Z,92422.22
2023-03-14T06:38:07.891Z,92409.91
2023-03-14T06:40:34.462Z,92424.06
2023-03-14T06:43:06.960Z,92424.06
2023-03-14T06:45:39.069Z,92418.88
2023-03-14T06:48:06.425Z,92414.78
2023-03-14T06:50:40.180Z,92421.03
2023-03-14T06:53:06.675Z,92423.00
2023-03-14T06:55:35.425Z,92428.63
2023-03-14T06:58:01.915Z,92437.59
2023-03-14T07:00:29.219Z,92437.41
2023-03-14T07:02:57.379Z,92424.56
2023-03-14T07:05:37.700Z,92444.09
2023-03-14T07:08:04.124Z,92444.09
2023-03-14T07:10:30.601Z,92448.63
2023-03-14T07:12:57.084Z,92459.25
2023-03-14T07:15:26.657Z,92468.38
2023-03-14T07:17:57.625Z,92463.94
2023-03-14T07:20:25.036Z,92468.38
2023-03-14T07:22:52.184Z,92462.22
2023-03-14T07:25:26.219Z,92471.84
2023-03-14T07:27:53.959Z,92467.75
2023-03-14T07:30:20.502Z,92474.44
2023-03-14T07:32:47.339Z,92475.31
2023-03-14T07:35:14.619Z,92466.47
2023-03-14T07:37:41.993Z,92467.34
2023-03-14T07:40:11.453Z,92453.44
2023-03-14T07:42:37.910Z,92460.25
2023-03-14T07:45:30.164Z,92459.84
2023-03-14T07:47:59.503Z,92458.91
2023-03-14T07:50:26.931Z,92471.06
2023-03-14T07:52:53.640Z,92465.13
2023-03-14T07:55:20.148Z,92471.75
2023-03-14T07:57:46.704Z,92469.38
2023-03-14T08:00:16.082Z,92469.19
2023-03-14T08:02:43.127Z,92462.59
2023-03-14T08:05:10.313Z,92467.78
2023-03-14T08:07:36.806Z,92472.66
2023-03-14T08:10:03.729Z,92470.28
2023-03-14T08:12:30.104Z,92456.34
2023-03-14T08:14:56.550Z,92477.25
2023-03-14T08:17:22.933Z,92458.28
2023-03-14T08:19:49.359Z,92467.63
2023-03-14T08:22:17.752Z,92461.91
2023-03-14T08:24:45.772Z,92469.13
2023-03-14T08:27:12.250Z,92470.44
2023-03-14T08:29:38.716Z,92479.53
2023-03-14T08:32:05.524Z,92465.78
2023-03-14T08:34:34.327Z,92484.00
2023-03-14T08:37:00.871Z,92467.59
2023-03-14T08:39:27.385Z,92468.94
2023-03-14T08:41:53.811Z,92457.41
2023-03-14T08:44:20.997Z,92462.91
2023-03-14T08:46:47.635Z,92457.91
2023-03-14T08:49:15.767Z,92460.81
2023-03-14T08:51:42.295Z,92461.94
2023-03-14T08:54:11.790Z,92461.25
2023-03-14T08:56:41.345Z,92461.50
2023-03-14T08:59:09.062Z,92460.47
2023-03-14T09:01:35.589Z,92469.56
2023-03-14T09:04:02.073Z,92483.53
2023-03-14T09:06:28.585Z,92468.47
2023-03-14T09:08:55.044Z,92465.94
2023-03-14T09:11:21.526Z,92456.78
2023-03-14T09:13:48.029Z,92471.91
2023-03-14T09:16:14.521Z,92474.72
2023-03-14T09:18:40.962Z,92471.09
2023-03-14T09:21:07.813Z,92487.09
2023-03-14T09:23:34.288Z,92481.97
2023-03-14T09:26:01.716Z,92476.22
2023-03-14T09:28:28.631Z,92480.41
2023-03-14T09:30:55.500Z,92473.91
2023-03-14T09:33:22.261Z,92470.47
2023-03-14T09:35:48.768Z,92477.03
2023-03-14T09:38:15.219Z,92472.91
2023-03-14T09:40:41.815Z,92466.28
2023-03-14T09:43:15.115Z,92474.16
2023-03-14T09:45:43.766Z,92483.59
2023-03-14T09:48:17.815Z,92471.75
2023-03-14T09:50:50.370Z,92473.25
2023-03-14T09:53:19.745Z,92475.03
2023-03-14T09:55:49.353Z,92477.94
2023-03-14T09:58:25.733Z,92483.75
2023-03-14T10:00:56.212Z,92489.44
2023-03-14T10:03:32.140Z,92475.06
2023-03-14T10:05:59.052Z,92475.16
2023-03-14T10:08:25.985Z,92464.59
2023-03-14T10:10:54.508Z,92459.63
2023-03-14T10:13:28.963Z,92442.41
2023-03-14T10:16:07.265Z,92447.38
2023-03-14T10:18:37.028Z,92458.22
2023-03-14T10:21:30.859Z,92460.16
2023-03-14T10:24:27.132Z,92452.84
2023-03-14T10:27:04.718Z,92453.09
2023-03-14T10:29:33.589Z,92456.56
2023-03-14T10:32:04.609Z,92503.41
2023-03-14T10:34:33.583Z,92477.94
2023-03-14T10:37:08.087Z,92455.50
2023-03-14T10:39:34.564Z,92464.59
2023-03-14T10:42:20.085Z,92470.38
2023-03-14T10:44:51.819Z,92484.00
2023-03-14T10:47:24.260Z,92478.78
2023-03-14T10:49:51.424Z,92458.91
2023-03-14T10:52:31.217Z,92498.16
2023-03-14T10:55:12.728Z,92477.72
2023-03-14T10:57:40.617Z,92484.78
2023-03-14T11:00:12.563Z,92481.28
2023-03-14T11:02:50.785Z,92470.34
2023-03-14T11:05:32.616Z,92493.31
2023-03-14T11:08:08.855Z,92520.53
2023-03-14T11:10:38.649Z,92495.50
2023-03-14T11:13:20.445Z,92479.59
2023-03-14T11:15:57.825Z,92474.78
2023-03-14T11:18:49.312Z,92470.66
2023-03-14T11:21:25.757Z,92478.22
2023-03-14T11:24:17.064Z,92493.38
2023-03-14T11:26:47.366Z,92486.31
2023-03-14T11:29:26.296Z,92481.38
2023-03-14T11:31:58.459Z,92475.31
2023-03-14T11:34:44.584Z,92489.25
2023-03-14T11:37:27.167Z,92479.78
2023-03-14T11:40:02.446Z,92480.50
2023-03-14T11:42:30.433Z,92491.13
2023-03-14T11:45:00.536Z,92478.25
2023-03-14T11:47:34.178Z,92482.13
2023-03-14T11:50:13.857Z,92485.47
2023-03-14T11:52:55.142Z,92492.75
2023-03-14T11:55:28.847Z,92508.44
2023-03-14T11:58:02.228Z,92496.19
2023-03-14T12:00:30.781Z,92498.22
2023-03-14T12:03:25.011Z,92516.22
2023-03-14T12:05:54.467Z,92518.53
2023-03-14T12:08:33.891Z,92513.97
2023-03-14T12:11:12.502Z,92554.13
2023-03-14T12:13:41.025Z,92547.03
2023-03-14T12:16:20.815Z,92540.44
2023-03-14T12:18:47.365Z,92533.72
2023-03-14T12:21:14.314Z,92529.19
2023-03-14T12:23:50.769Z,92536.03
2023-03-14T12:27:06.615Z,92540.13
2023-03-14T12:29:33.163Z,92536.72
2023-03-14T12:32:02.276Z,92528.94
2023-03-14T12:34:31.807Z,92533.03
2023-03-14T12:37:18.654Z,92552.88
2023-03-14T12:40:12.061Z,92549.75
2023-03-14T12:42:45.740Z,92549.50
2023-03-14T12:45:26.267Z,92538.88
2023-03-14T12:48:04.261Z,92556.81
2023-03-14T12:50:46.519Z,92557.50
2023-03-14T12:53:39.811Z,92560.28
2023-03-14T12:56:24.069Z,92564.41
2023-03-14T12:59:27.490Z,92576.84
2023-03-14T13:02:28.608Z,92585.81
2023-03-14T13:05:13.301Z,92577.44
2023-03-14T13:07:48.793Z,92590.94
2023-03-14T13:10:28.835Z,92593.41
2023-03-14T13:13:04.401Z,92619.91
2023-03-14T13:15:36.284Z,92624.97
2023-03-14T13:18:16.488Z,92619.63
2023-03-14T13:20:49.539Z,92617.38
2023-03-14T13:23:29.279Z,92617.38
2023-03-14T13:25:57.008Z,92617.38
2023-03-14T13:28:23.973Z,92615.06
2023-03-14T13:30:55.611Z,92626.09
2023-03-14T13:33:23.730Z,92665.69
2023-03-14T13:35:56.385Z,92629.84
2023-03-14T13:38:28.363Z,92636.84
2023-03-14T13:41:00.552Z,92632.56
2023-03-14T13:43:34.089Z,92652.81
2023-03-14T13:46:23.699Z,92665.31
2023-03-14T13:48:55.424Z,92662.72
2023-03-14T13:51:23.603Z,92684.00
2023-03-14T13:53:52.732Z,92688.56
2023-03-14T13:56:24.491Z,92711.38
2023-03-14T13:58:51.110Z,92704.66
2023-03-14T14:01:43.989Z,92712.59
2023-03-14T14:04:16.784Z,92721.44
2023-03-14T14:06:50.641Z,92746.84
2023-03-14T14:09:25.611Z,92757.44
2023-03-14T14:12:14.345Z,92776.16
2023-03-14T14:14:55.842Z,92776.66
2023-03-14T14:17:32.140Z,92807.97
2023-03-14T14:20:01.092Z,92826.31
2023-03-14T14:22:28.378Z,92800.97
2023-03-14T14:24:55.276Z,92829.06
2023-03-14T14:27:32.425Z,92854.72
2023-03-14T14:30:06.100Z,92839.94
2023-03-14T14:32:38.668Z,92852.13
2023-03-14T14:35:06.340Z,92873.16
2023-03-14T14:37:35.569Z,92887.50
2023-03-14T14:40:19.543Z,92859.28
2023-03-14T14:42:46.624Z,92865.53
2023-03-14T14:45:24.835Z,92882.16
2023-03-14T14:47:52.819Z,92896.81
2023-03-14T14:50:30.116Z,92886.28
2023-03-14T14:53:02.126Z,92912.22
2023-03-14T14:55:40.081Z,92927.91
2023-03-14T14:58:39.153Z,92927.72
2023-03-14T15:01:12.653Z,93012.31
2023-03-14T15:03:39.155Z,92916.09
2023-03-14T15:06:05.803Z,92932.72
2023-03-14T15:08:32.262Z,92941.91
2023-03-14T15:10:59.170Z,92934.44
2023-03-14T15:13:25.792Z,92966.63
2023-03-14T15:15:57.007Z,92940.13
2023-03-14T15:18:25.877Z,92940.75
2023-03-14T15:20:52.848Z,92961.97
2023-03-14T15:23:20.969Z,92954.38
2023-03-14T15:25:55.553Z,92981.06
2023-03-14T15:28:28.145Z,92947.78
2023-03-14T15:30:56.989Z,92984.75
2023-03-14T15:33:25.010Z,93010.06
2023-03-14T15:35:51.793Z,93042.03
2023-03-14T15:38:23.731Z,92984.63
2023-03-14T15:40:51.530Z,93017.16
2023-03-14T15:43:19.133Z,93014.97
2023-03-14T15:45:45.857Z,93024.19
2023-03-14T15:48:20.290Z,93026.78
2023-03-14T15:50:46.811Z,93020.41
2023-03-14T15:53:13.545Z,93025.03
2023-03-14T15:55:40.109Z,93040.19
2023-03-14T15:58:06.784Z,93049.38
2023-03-14T16:00:33.308Z,93024.59
2023-03-14T16:02:59.725Z,93059.66
2023-03-14T16:05:26.218Z,93019.22
2023-03-14T16:07:52.602Z,93027.16
2023-03-14T16:10:19.145Z,93042.63
2023-03-14T16:12:45.702Z,93055.16
2023-03-14T16:15:12.101Z,93042.13
2023-03-14T16:17:40.930Z,93054.22
2023-03-14T16:20:08.496Z,93045.75
2023-03-14T16:22:36.612Z,93046.25
2023-03-14T16:25:05.697Z,93059.91
2023-03-14T16:27:32.885Z,93057.44
2023-03-14T16:30:00.477Z,93081.59
2023-03-14T16:32:27.121Z,93062.75
2023-03-14T16:34:54.141Z,93104.31
2023-03-14T16:37:21.682Z,93086.56
2023-03-14T16:40:11.021Z,93094.84
2023-03-14T16:42:46.788Z,93098.34
2023-03-14T16:45:17.103Z,93108.31
2023-03-14T16:47:43.515Z,93104.19
2023-03-14T16:50:10.244Z,93088.03
2023-03-14T16:52:36.857Z,93103.16
2023-03-14T16:55:04.607Z,93122.78
2023-03-14T16:57:31.048Z,93131.53
2023-03-14T16:59:57.530Z,93113.44
2023-03-14T17:02:23.999Z,93122.72
2023-03-14T17:04:50.589Z,93126.69
2023-03-14T17:07:16.993Z,93133.56
2023-03-14T17:09:43.413Z,93119.81
2023-03-14T17:12:10.062Z,93136.00
2023-03-14T17:14:36.453Z,93138.75
2023-03-14T17:17:02.952Z,93148.09
2023-03-14T17:19:29.441Z,93142.06
2023-03-14T17:22:09.299Z,93160.28
2023-03-14T17:24:42.324Z,93167.47
2023-03-14T17:27:08.809Z,93173.22
2023-03-14T17:29:35.352Z,93173.28
2023-03-14T17:32:01.826Z,93176.66
2023-03-14T17:34:28.223Z,93178.00
2023-03-14T17:36:54.622Z,93188.63
2023-03-14T17:39:21.076Z,93199.75
2023-03-14T17:41:47.777Z,93201.66
2023-03-14T17:44:14.172Z,93206.84
2023-03-14T17:46:40.652Z,93215.16
2023-03-14T17:49:07.162Z,93226.06
2023-03-14T17:51:33.547Z,93229.44
2023-03-14T17:54:00.037Z,93228.94
2023-03-14T17:56:26.408Z,93239.00
2023-03-14T17:58:54.116Z,93245.69
2023-03-14T18:01:21.207Z,93251.94
2023-03-14T18:03:48.045Z,93270.03
2023-03-14T18:06:17.040Z,93267.94
2023-03-14T18:08:43.983Z,93268.41
2023-03-14T18:11:11.525Z,93274.63
2023-03-14T18:13:38.565Z,93280.75
2023-03-14T18:16:07.232Z,93272.06
2023-03-14T18:18:33.923Z,93287.47
2023-03-14T18:21:00.407Z,93286.72
2023-03-14T18:23:26.787Z,93291.09
2023-03-14T18:25:53.255Z,93290.84
2023-03-14T18:28:21.111Z,93307.41
2023-03-14T18:30:52.190Z,93317.53
2023-03-14T18:33:20.673Z,93329.59
2023-03-14T18:35:47.200Z,93314.59
2023-03-14T18:38:13.791Z,93313.09
2023-03-14T18:40:40.387Z,93333.06
2023-03-14T18:43:06.820Z,93331.13
2023-03-14T18:45:34.382Z,93339.66
2023-03-14T18:48:00.817Z,93338.69
2023-03-14T18:50:28.121Z,93330.47
2023-03-14T18:52:54.657Z,93339.31
2023-03-14T18:55:21.142Z,93336.66
2023-03-14T18:57:47.554Z,93350.34
2023-03-14T19:00:15.475Z,93336.66
2023-03-14T19:02:41.993Z,93342.81
2023-03-14T19:05:09.309Z,93348.72
2023-03-14T19:07:35.780Z,93355.44
2023-03-14T19:10:02.300Z,93364.75
2023-03-14T19:12:29.605Z,93351.38
2023-03-14T19:14:56.072Z,93377.00
2023-03-14T19:17:22.863Z,93365.16
2023-03-14T19:19:51.796Z,93373.44
2023-03-14T19:22:18.198Z,93388.72
2023-03-14T19:24:44.608Z,93405.53
2023-03-14T19:27:11.172Z,93421.66
2023-03-14T19:29:42.102Z,93407.50
2023-03-14T19:32:12.564Z,93395.47
2023-03-14T19:34:39.033Z,93384.34
2023-03-14T19:37:05.499Z,93383.97
2023-03-14T19:39:32.001Z,93378.41
2023-03-14T19:41:59.425Z,93392.88
2023-03-14T19:44:26.354Z,93397.59
2023-03-14T19:46:53.331Z,93394.28
2023-03-14T19:49:19.961Z,93399.19
2023-03-14T19:51:46.383Z,93397.13
2023-03-14T19:54:12.826Z,93400.75
2023-03-14T19:56:40.213Z,93410.53
2023-03-14T19:59:07.358Z,93403.59
2023-03-14T20:01:35.133Z,93400.75
2023-03-14T20:04:04.768Z,93404.84
2023-03-14T20:06:31.398Z,93403.06
2023-03-14T20:08:58.908Z,93410.53
2023-03-14T20:11:25.626Z,93410.53
2023-03-14T20:13:52.117Z,93426.97
2023-03-14T20:16:18.674Z,93430.06
2023-03-14T20:18:45.141Z,93432.09
2023-03-14T20:21:15.494Z,93434.38
2023-03-14T20:23:44.024Z,93433.56
2023-03-14T20:26:10.919Z,93447.97
2023-03-14T20:28:37.389Z,93456.72
2023-03-14T20:31:06.446Z,93460.81
2023-03-14T20:33:34.449Z,93455.13
2023-03-14T20:36:00.961Z,93458.72
2023-03-14T20:38:28.576Z,93456.66
2023-03-14T20:40:59.551Z,93459.19
2023-03-14T20:43:27.258Z,93463.28
2023-03-14T20:45:55.413Z,93461.97
2023-03-14T20:48:22.874Z,93475.09
2023-03-14T20:50:49.373Z,93470.44
2023-03-14T20:53:16.855Z,93458.03
2023-03-14T20:55:43.336Z,93455.94
2023-03-14T20:58:12.983Z,93462.66
2023-03-14T21:00:40.420Z,93464.22
2023-03-14T21:03:07.432Z,93457.50
2023-03-14T21:05:34.730Z,93451.81
2023-03-14T21:08:01.293Z,93454.09
2023-03-14T21:10:28.107Z,93467.81
2023-03-14T21:12:54.520Z,93461.88
2023-03-14T21:15:21.939Z,93457.78
2023-03-14T21:17:48.448Z,93453.41
2023-03-14T21:20:16.632Z,93467.38
2023-03-14T21:22:43.060Z,93468.69
2023-03-14T21:25:09.656Z,93471.50
2023-03-14T21:27:40.074Z,93462.00
2023-03-14T21:30:07.930Z,93474.09
2023-03-14T21:32:34.475Z,93471.50
2023-03-14T21:35:00.985Z,93475.34
2023-03-14T21:37:27.916Z,93473.25
2023-03-14T21:39:54.987Z,93485.91
2023-03-14T21:42:24.517Z,93474.56
2023-03-14T21:44:52.158Z,93476.59
2023-03-14T21:47:19.670Z,93470.16
2023-03-14T21:49:47.097Z,93467.13
2023-03-14T21:52:14.439Z,93478.22
2023-03-14T21:54:43.232Z,93482.88
2023-03-14T21:57:10.536Z,93485.50
2023-03-14T21:59:38.070Z,93489.13
2023-03-14T22:02:07.540Z,93485.00
2023-03-14T22:04:36.911Z,93489.13
2023-03-14T22:07:05.485Z,93483.19
2023-03-14T22:09:32.581Z,93489.66
2023-03-14T22:11:59.128Z,93491.19
2023-03-14T22:14:25.765Z,93495.34
2023-03-14T22:16:52.505Z,93493.56
2023-03-14T22:19:19.475Z,93495.09
2023-03-14T22:21:45.977Z,93512.38
2023-03-14T22:24:12.495Z,93511.38
2023-03-14T22:26:38.883Z,93509.09
2023-03-14T22:29:05.558Z,93513.00
2023-03-14T22:31:32.216Z,93514.56
2023-03-14T22:33:58.680Z,93506.09
2023-03-14T22:36:25.163Z,93495.84
2023-03-14T22:38:51.557Z,93500.50
2023-03-14T22:41:17.974Z,93503.63
2023-03-14T22:43:44.441Z,93496.41
2023-03-14T22:46:10.935Z,93515.25
2023-03-14T22:48:37.393Z,93507.56
2023-03-14T22:51:11.143Z,93503.44
2023-03-14T22:53:39.090Z,93502.44
2023-03-14T22:56:09.133Z,93510.16
2023-03-14T22:58:36.091Z,93506.28
2023-03-14T23:01:03.044Z,93511.16
2023-03-14T23:03:29.851Z,93515.56
2023-03-14T23:05:56.499Z,93518.63
2023-03-14T23:08:23.199Z,93515.03
2023-03-14T23:10:49.636Z,93516.59
2023-03-14T23:13:16.035Z,93517.84
2023-03-14T23:15:43.469Z,93514.25
2023-03-14T23:18:11.930Z,93526.13
2023-03-14T23:20:38.387Z,93524.06
2023-03-14T23:23:08.358Z,93534.84
2023-03-14T23:25:41.577Z,93529.19
2023-03-14T23:28:18.965Z,93527.13
2023-03-14T23:30:45.463Z,93523.78
2023-03-14T23:33:11.968Z,93515.28
2023-03-14T23:35:38.389Z,93517.03
2023-03-14T23:38:04.861Z,93515.00
2023-03-14T23:40:31.325Z,93523.47
2023-03-14T23:42:57.722Z,93512.16
2023-03-14T23:45:24.238Z,93516.25
2023-03-14T23:47:50.680Z,93523.69
2023-03-14T23:50:17.174Z,93538.91
2023-03-14T23:52:43.645Z,93531.19
2023-03-14T23:55:10.502Z,93524.75
2023-03-14T23:57:36.990Z,93528.09
